Time,TemperatureF,DewpointF,PressureIn,WindDirection,WindDirectionDegrees,WindSpeedMPH,WindSpeedGustMPH,Humidity,HourlyPrecipIn,Conditions,Clouds,dailyrainin,SolarRadiationWatts/m^2,SoftwareType,DateUTC
2013-04-25 00:22:00,28.0,14.0,-100.00,NW,320,2.0,5.0,55,0.00,,,0.00,1.000000,,2013-04-25 06:22:00,
2013-04-25 00:31:00,28.0,14.0,-100.00,NW,320,2.0,5.0,55,0.00,,,0.00,1.000000,,2013-04-25 06:31:00,
2013-04-25 00:41:00,28.0,14.0,-100.00,NW,320,2.0,5.0,55,0.00,,,0.00,1.000000,,2013-04-25 06:41:00,
2013-04-25 00:52:00,28.0,14.0,-100.00,NW,320,2.0,5.0,55,0.00,,,0.00,1.000000,,2013-04-25 06:52:00,
2013-04-25 01:21:00,26.0,12.0,-100.00,NNW,345,1.0,5.0,56,0.00,,,0.00,1.000000,,2013-04-25 07:21:00,
2013-04-25 01:31:00,26.0,12.0,-100.00,NNW,345,1.0,5.0,56,0.00,,,0.00,1.000000,,2013-04-25 07:31:00,
2013-04-25 01:42:00,26.0,12.0,-100.00,NNW,345,1.0,5.0,56,0.00,,,0.00,1.000000,,2013-04-25 07:42:00,
2013-04-25 01:52:00,26.0,12.0,-100.00,NNW,345,1.0,5.0,56,0.00,,,0.00,1.000000,,2013-04-25 07:52:00,
2013-04-25 02:21:00,24.0,13.0,-100.00,NE,49,3.0,4.0,61,0.00,,,0.00,1.000000,,2013-04-25 08:21:00,
2013-04-25 02:31:00,24.0,13.0,-100.00,NE,49,3.0,4.0,61,0.00,,,0.00,1.000000,,2013-04-25 08:31:00,
2013-04-25 02:41:00,24.0,13.0,-100.00,NE,49,3.0,4.0,61,0.00,,,0.00,1.000000,,2013-04-25 08:41:00,
2013-04-25 02:51:00,24.0,13.0,-100.00,NE,49,3.0,4.0,61,0.00,,,0.00,1.000000,,2013-04-25 08:51:00,
2013-04-25 03:21:00,23.0,14.0,-100.00,North,354,4.0,6.0,68,0.00,,,0.00,1.000000,,2013-04-25 09:21:00,
2013-04-25 03:33:00,23.0,14.0,-100.00,North,354,4.0,6.0,68,0.00,,,0.00,1.000000,,2013-04-25 09:33:00,
2013-04-25 03:42:00,23.0,14.0,-100.00,North,354,4.0,6.0,68,0.00,,,0.00,1.000000,,2013-04-25 09:42:00,
2013-04-25 03:52:00,23.0,14.0,-100.00,North,354,4.0,6.0,68,0.00,,,0.00,1.000000,,2013-04-25 09:52:00,
2013-04-25 04:22:00,20.0,13.0,-100.00,North,357,3.0,6.0,73,0.00,,,0.00,1.000000,,2013-04-25 10:22:00,
2013-04-25 04:32:00,20.0,13.0,-100.00,North,357,3.0,6.0,73,0.00,,,0.00,1.000000,,2013-04-25 10:32:00,
2013-04-25 04:42:00,20.0,13.0,-100.00,North,357,3.0,6.0,73,0.00,,,0.00,1.000000,,2013-04-25 10:42:00,
2013-04-25 04:52:00,20.0,13.0,-100.00,North,357,3.0,6.0,73,0.00,,,0.00,1.000000,,2013-04-25 10:52:00,
2013-04-25 05:22:00,16.0,9.0,-100.00,NNE,25,5.0,8.0,72,0.00,,,0.00,0.000000,,2013-04-25 11:22:00,
2013-04-25 05:32:00,16.0,9.0,-100.00,NNE,25,5.0,8.0,72,0.00,,,0.00,0.000000,,2013-04-25 11:32:00,
2013-04-25 05:42:00,16.0,9.0,-100.00,NNE,25,5.0,8.0,72,0.00,,,0.00,0.000000,,2013-04-25 11:42:00,
2013-04-25 05:51:00,16.0,9.0,-100.00,NNE,25,5.0,8.0,72,0.00,,,0.00,0.000000,,2013-04-25 11:51:00,
2013-04-25 06:21:00,19.0,12.0,-100.00,NNW,333,3.0,8.0,75,0.00,,,0.00,1.000000,,2013-04-25 12:21:00,
2013-04-25 06:31:00,19.0,12.0,-100.00,NNW,333,3.0,8.0,75,0.00,,,0.00,1.000000,,2013-04-25 12:31:00,
2013-04-25 06:41:00,19.0,12.0,-100.00,NNW,333,3.0,8.0,75,0.00,,,0.00,1.000000,,2013-04-25 12:41:00,
2013-04-25 06:51:00,19.0,12.0,-100.00,NNW,333,3.0,8.0,75,0.00,,,0.00,1.000000,,2013-04-25 12:51:00,
2013-04-25 07:21:00,21.0,12.0,-100.00,NNW,327,4.0,6.0,69,0.00,,,0.00,10.000000,,2013-04-25 13:21:00,
2013-04-25 07:31:00,21.0,12.0,-100.00,NNW,327,4.0,6.0,69,0.00,,,0.00,10.000000,,2013-04-25 13:31:00,
2013-04-25 07:42:00,21.0,12.0,-100.00,NNW,327,4.0,6.0,69,0.00,,,0.00,10.000000,,2013-04-25 13:42:00,
2013-04-25 07:52:00,21.0,12.0,-100.00,NNW,327,4.0,6.0,69,0.00,,,0.00,10.000000,,2013-04-25 13:52:00,
2013-04-25 08:21:00,25.0,12.0,-100.00,NNE,30,2.0,4.0,58,0.00,,,0.00,141.000000,,2013-04-25 14:21:00,
2013-04-25 08:32:00,25.0,12.0,-100.00,NNE,30,2.0,4.0,58,0.00,,,0.00,141.000000,,2013-04-25 14:32:00,
2013-04-25 08:42:00,25.0,12.0,-100.00,NNE,30,2.0,4.0,58,0.00,,,0.00,141.000000,,2013-04-25 14:42:00,
2013-04-25 08:51:00,25.0,12.0,-100.00,NNE,30,2.0,4.0,58,0.00,,,0.00,141.000000,,2013-04-25 14:51:00,
2013-04-25 09:21:00,27.0,15.0,-100.00,NNE,12,5.0,6.0,60,0.00,,,0.00,337.000000,,2013-04-25 15:21:00,
2013-04-25 09:33:00,27.0,15.0,-100.00,NNE,12,5.0,6.0,60,0.00,,,0.00,337.000000,,2013-04-25 15:33:00,
2013-04-25 09:42:00,27.0,15.0,-100.00,NNE,12,5.0,6.0,60,0.00,,,0.00,337.000000,,2013-04-25 15:42:00,
2013-04-25 09:52:00,27.0,15.0,-100.00,NNE,12,5.0,6.0,60,0.00,,,0.00,337.000000,,2013-04-25 15:52:00,
2013-04-25 10:24:00,37.0,19.0,-100.00,NE,43,4.0,9.0,48,0.00,,,0.00,542.000000,,2013-04-25 16:24:00,
2013-04-25 10:32:00,37.0,19.0,-100.00,NE,43,4.0,9.0,48,0.00,,,0.00,542.000000,,2013-04-25 16:32:00,
2013-04-25 10:42:00,37.0,19.0,-100.00,NE,43,4.0,9.0,48,0.00,,,0.00,542.000000,,2013-04-25 16:42:00,
2013-04-25 10:52:00,37.0,19.0,-100.00,NE,43,4.0,9.0,48,0.00,,,0.00,542.000000,,2013-04-25 16:52:00,
2013-04-25 11:22:00,42.0,18.0,-100.00,SSW,195,14.0,18.0,38,0.00,,,0.00,709.000000,,2013-04-25 17:22:00,
2013-04-25 11:32:00,42.0,18.0,-100.00,SSW,195,14.0,18.0,38,0.00,,,0.00,709.000000,,2013-04-25 17:32:00,
2013-04-25 11:42:00,42.0,18.0,-100.00,SSW,195,14.0,18.0,38,0.00,,,0.00,709.000000,,2013-04-25 17:42:00,
2013-04-25 11:53:00,42.0,18.0,-100.00,SSW,195,14.0,18.0,38,0.00,,,0.00,709.000000,,2013-04-25 17:53:00,
2013-04-25 12:21:00,46.0,16.0,-100.00,South,177,11.0,19.0,29,0.00,,,0.00,850.000000,,2013-04-25 18:21:00,
2013-04-25 12:32:00,46.0,16.0,-100.00,South,177,11.0,19.0,29,0.00,,,0.00,850.000000,,2013-04-25 18:32:00,
2013-04-25 12:42:00,46.0,16.0,-100.00,South,177,11.0,19.0,29,0.00,,,0.00,850.000000,,2013-04-25 18:42:00,
2013-04-25 12:52:00,46.0,16.0,-100.00,South,177,11.0,19.0,29,0.00,,,0.00,850.000000,,2013-04-25 18:52:00,
2013-04-25 13:21:00,49.0,11.0,-100.00,SSW,198,11.0,21.0,21,0.00,,,0.00,935.000000,,2013-04-25 19:21:00,
2013-04-25 13:31:00,49.0,11.0,-100.00,SSW,198,11.0,21.0,21,0.00,,,0.00,935.000000,,2013-04-25 19:31:00,
2013-04-25 13:41:00,49.0,11.0,-100.00,SSW,198,11.0,21.0,21,0.00,,,0.00,935.000000,,2013-04-25 19:41:00,
2013-04-25 13:52:00,49.0,11.0,-100.00,SSW,198,11.0,21.0,21,0.00,,,0.00,935.000000,,2013-04-25 19:52:00,
2013-04-25 14:22:00,49.0,11.0,-100.00,SSW,201,12.0,22.0,21,0.00,,,0.00,941.000000,,2013-04-25 20:22:00,
2013-04-25 14:32:00,49.0,11.0,-100.00,SSW,201,12.0,22.0,21,0.00,,,0.00,941.000000,,2013-04-25 20:32:00,
2013-04-25 14:42:00,49.0,11.0,-100.00,SSW,201,12.0,22.0,21,0.00,,,0.00,941.000000,,2013-04-25 20:42:00,
2013-04-25 14:51:00,49.0,11.0,-100.00,SSW,201,12.0,22.0,21,0.00,,,0.00,941.000000,,2013-04-25 20:51:00,
2013-04-25 15:21:00,52.0,6.0,-100.00,SW,226,8.0,25.0,15,0.00,,,0.00,896.000000,,2013-04-25 21:21:00,
2013-04-25 15:33:00,52.0,6.0,-100.00,SW,226,8.0,25.0,15,0.00,,,0.00,896.000000,,2013-04-25 21:33:00,
2013-04-25 15:42:00,52.0,6.0,-100.00,SW,226,8.0,25.0,15,0.00,,,0.00,896.000000,,2013-04-25 21:42:00,
2013-04-25 15:52:00,52.0,6.0,-100.00,SW,226,8.0,25.0,15,0.00,,,0.00,896.000000,,2013-04-25 21:52:00,
2013-04-25 16:22:00,52.0,4.0,-100.00,SW,224,7.0,21.0,14,0.00,,,0.00,828.000000,,2013-04-25 22:22:00,
2013-04-25 16:32:00,52.0,4.0,-100.00,SW,224,7.0,21.0,14,0.00,,,0.00,828.000000,,2013-04-25 22:32:00,
2013-04-25 16:42:00,52.0,4.0,-100.00,SW,224,7.0,21.0,14,0.00,,,0.00,828.000000,,2013-04-25 22:42:00,
2013-04-25 16:52:00,52.0,4.0,-100.00,SW,224,7.0,21.0,14,0.00,,,0.00,828.000000,,2013-04-25 22:52:00,
2013-04-25 17:22:00,52.0,6.0,-100.00,SW,230,9.0,22.0,15,0.00,,,0.00,690.000000,,2013-04-25 23:22:00,
2013-04-25 17:32:00,52.0,6.0,-100.00,SW,230,9.0,22.0,15,0.00,,,0.00,690.000000,,2013-04-25 23:32:00,
2013-04-25 17:41:00,52.0,6.0,-100.00,SW,230,9.0,22.0,15,0.00,,,0.00,690.000000,,2013-04-25 23:41:00,
2013-04-25 17:52:00,52.0,6.0,-100.00,SW,230,9.0,22.0,15,0.00,,,0.00,690.000000,,2013-04-25 23:52:00,
2013-04-25 18:21:00,50.0,9.0,-100.00,SSW,208,10.0,18.0,19,0.00,,,0.00,512.000000,,2013-04-26 00:21:00,
2013-04-25 18:31:00,50.0,9.0,-100.00,SSW,208,10.0,18.0,19,0.00,,,0.00,512.000000,,2013-04-26 00:31:00,
2013-04-25 18:41:00,50.0,9.0,-100.00,SSW,208,10.0,18.0,19,0.00,,,0.00,512.000000,,2013-04-26 00:41:00,
2013-04-25 18:51:00,50.0,9.0,-100.00,SSW,208,10.0,18.0,19,0.00,,,0.00,512.000000,,2013-04-26 00:51:00,
2013-04-25 19:21:00,48.0,13.0,-100.00,SSW,207,9.0,16.0,24,0.00,,,0.00,308.000000,,2013-04-26 01:21:00,
2013-04-25 19:31:00,48.0,13.0,-100.00,SSW,207,9.0,16.0,24,0.00,,,0.00,308.000000,,2013-04-26 01:31:00,
2013-04-25 19:41:00,48.0,13.0,-100.00,SSW,207,9.0,16.0,24,0.00,,,0.00,308.000000,,2013-04-26 01:41:00,
2013-04-25 19:52:00,48.0,13.0,-100.00,SSW,207,9.0,16.0,24,0.00,,,0.00,308.000000,,2013-04-26 01:52:00,
2013-04-25 20:21:00,43.0,13.0,-100.00,SSW,212,3.0,19.0,29,0.00,,,0.00,72.000000,,2013-04-26 02:21:00,
2013-04-25 20:32:00,43.0,13.0,-100.00,SSW,212,3.0,19.0,29,0.00,,,0.00,72.000000,,2013-04-26 02:32:00,
2013-04-25 20:42:00,43.0,13.0,-100.00,SSW,212,3.0,19.0,29,0.00,,,0.00,72.000000,,2013-04-26 02:42:00,
2013-04-25 20:51:00,43.0,13.0,-100.00,SSW,212,3.0,19.0,29,0.00,,,0.00,72.000000,,2013-04-26 02:51:00,
2013-04-25 21:21:00,37.0,12.0,-100.00,WNW,289,5.0,7.0,35,0.00,,,0.00,4.000000,,2013-04-26 03:21:00,
2013-04-25 21:33:00,37.0,12.0,-100.00,WNW,289,5.0,7.0,35,0.00,,,0.00,4.000000,,2013-04-26 03:33:00,
2013-04-25 21:43:00,37.0,12.0,-100.00,WNW,289,5.0,7.0,35,0.00,,,0.00,4.000000,,2013-04-26 03:43:00,
2013-04-25 21:52:00,37.0,12.0,-100.00,WNW,289,5.0,7.0,35,0.00,,,0.00,4.000000,,2013-04-26 03:52:00,
2013-04-25 22:22:00,33.0,15.0,-100.00,NNW,335,2.0,7.0,48,0.00,,,0.00,1.000000,,2013-04-26 04:22:00,
2013-04-25 22:32:00,33.0,15.0,-100.00,NNW,335,2.0,7.0,48,0.00,,,0.00,1.000000,,2013-04-26 04:32:00,
2013-04-25 22:43:00,33.0,15.0,-100.00,NNW,335,2.0,7.0,48,0.00,,,0.00,1.000000,,2013-04-26 04:43:00,
2013-04-25 22:52:00,33.0,15.0,-100.00,NNW,335,2.0,7.0,48,0.00,,,0.00,1.000000,,2013-04-26 04:52:00,
2013-04-25 23:22:00,30.0,17.0,-100.00,North,357,2.0,4.0,59,0.00,,,0.00,1.000000,,2013-04-26 05:22:00,
2013-04-25 23:32:00,30.0,17.0,-100.00,North,357,2.0,4.0,59,0.00,,,0.00,1.000000,,2013-04-26 05:32:00,
2013-04-25 23:42:00,30.0,17.0,-100.00,North,357,2.0,4.0,59,0.00,,,0.00,1.000000,,2013-04-26 05:42:00,
2013-04-25 23:52:00,30.0,17.0,-100.00,North,357,2.0,4.0,59,0.00,,,0.00,1.000000,,2013-04-26 05:52:00,